Time;durP1;ratioP1;P1;durP2;ratioP2;P2;SDS_P1;SDS_P2;PMS_P1;PMS_P2;Temp;Humidity;BMP_temperature;BMP_pressure;BME280_temperature;BME280_humidity;BME280_pressure;Samples;Min_cycle;Max_cycle;Signal;HPM_P1;HPM_P2
2023/10/21 05:58:30;;;;;;;;;;;;;;;;;;5012174;28;19984;-74
2023/10/21 06:00:57;;;;;;;;;;;;;;;;;;5014224;28;19973;-75
2023/10/21 06:03:24;;;;;;;;;;;;;;;;;;5014451;28;19925;-74
2023/10/21 06:05:51;;;;;;;;;;;;;;;;;;5011681;28;19926;-74
2023/10/21 06:08:17;;;;;;;;;;;;;;;;;;4997168;28;19925;-75
2023/10/21 06:10:46;;;;;;;;;;;;;;;;;;4998221;28;19933;-75
2023/10/21 06:13:13;;;;;;;;;;;;;;;;;;4998475;28;19925;-75
2023/10/21 06:15:40;;;;;;;;;;;;;;;;;;4998493;28;20024;-75
2023/10/21 06:18:07;;;;;;;;;;;;;;;;;;4998086;28;19933;-75
2023/10/21 06:20:33;;;;;;;;;;;;;;;;;;4998305;28;19925;-75
2023/10/21 06:23:00;;;;;;;;;;;;;;;;;;4998156;28;20379;-75
2023/10/21 06:25:27;;;;;;;;;;;;;;;;;;4998625;28;19933;-75
2023/10/21 06:27:54;;;;;;;;;;;;;;;;;;4998151;28;19997;-75
2023/10/21 06:30:21;;;;;;;;;;;;;;;;;;4998104;28;19926;-74
2023/10/21 06:32:48;;;;;;;;;;;;;;;;;;4997967;28;20295;-75
2023/10/21 06:35:15;;;;;;;;;;;;;;;;;;4997907;28;20347;-75
2023/10/21 06:37:42;;;;;;;;;;;;;;;;;;4998285;28;19933;-75
2023/10/21 06:40:09;;;;;;;;;;;;;;;;;;4998159;28;20291;-75
2023/10/21 06:42:36;;;;;;;;;;;;;;;;;;4997610;28;20361;-76
2023/10/21 06:45:03;;;;;;;;;;;;;;;;;;4997924;28;19930;-75
2023/10/21 06:47:30;;;;;;;;;;;;;;;;;;4997885;28;19930;-74
2023/10/21 06:49:57;;;;;;;;;;;;;;;;;;4997640;28;20395;-73
2023/10/21 06:52:25;;;;;;;;;;;;;;;;;;4997807;28;20004;-73
2023/10/21 06:54:53;;;;;;;;;;;;;;;;;;4998162;28;19932;-74
2023/10/21 06:57:21;;;;;;;;;;;;;;;;;;4999981;28;19961;-74
2023/10/21 06:59:48;;;;;;;;;;;;;;;;;;4999653;28;19930;-74
2023/10/21 07:02:17;;;;;;;;;;;;;;;;;;4998000;28;19925;-74
2023/10/21 07:04:44;;;;;;;;;;;;;;;;;;4998988;28;19934;-74
2023/10/21 07:07:11;;;;;;;;;;;;;;;;;;4997591;28;19990;-75
2023/10/21 07:09:38;;;;;;;;;;;;;;;;;;4997522;28;20295;-74
2023/10/21 07:12:05;;;;;;;;;;;;;;;;;;4997641;28;19926;-73
2023/10/21 07:14:32;;;;;;;;;;;;;;;;;;4997449;28;20016;-74
2023/10/21 07:17:00;;;;;;;;;;;;;;;;;;4998025;28;20364;-76
2023/10/21 07:19:27;;;;;;;;;;;;;;;;;;4997028;28;20352;-75
2023/10/21 07:21:53;;;;;;;;;;;;;;;;;;4997568;28;19926;-75
2023/10/21 07:24:20;;;;;;;;;;;;;;;;;;4998940;28;19929;-72
2023/10/21 07:26:47;;;;;;;;;;;;;;;;;;4997935;28;19933;-72
2023/10/21 07:29:17;;;;;;;;;;;;;;;;;;4999008;28;19930;-74
2023/10/21 07:31:44;;;;;;;;;;;;;;;;;;4999505;28;19926;-74
2023/10/21 07:34:11;;;;;;;;;;;;;;;;;;5000370;28;20303;-74
2023/10/21 07:36:39;;;;;;;;;;;;;;;;;;4997256;28;20408;-76
2023/10/21 07:39:08;;;;;;;;;;;;;;;;;;5012514;28;20402;-76
2023/10/21 07:41:35;;;;;;;;;;;;;;;;;;4997682;28;20398;-78
2023/10/21 07:44:06;;;;;;;;;;;;;;;;;;4999337;28;19926;-78
2023/10/21 07:46:34;;;;;;;;;;;;;;;;;;5000209;28;19926;-77
2023/10/21 07:49:06;;;;;;;;;;;;;;;;;;4997933;28;19937;-77
2023/10/21 07:51:33;;;;;;;;;;;;;;;;;;4998108;28;19932;-77
2023/10/21 07:54:00;;;;;;;;;;;;;;;;;;4997363;28;20041;-77
2023/10/21 07:56:28;;;;;;;;;;;;;;;;;;4998562;28;19949;-78
2023/10/21 07:58:55;;;;;;;;;;;;;;;;;;4997746;28;20040;-78
2023/10/21 08:01:26;;;;;;;;;;;;;;;;;;4997530;28;21186;-78
2023/10/21 08:03:53;;;;;;;;;;;;;;;;;;4997262;28;19957;-77
2023/10/21 08:06:19;;;;;;;;;;;;;;;;;;4996637;28;19926;-77
2023/10/21 08:08:47;;;;;;;;;;;;;;;;;;4997004;28;19926;-77
2023/10/21 08:11:13;;;;;;;;;;;;;;;;;;4999861;28;19925;-78
2023/10/21 08:13:40;;;;;;;;;;;;;;;;;;4999288;28;19930;-77
2023/10/21 08:16:07;;;;;;;;;;;;;;;;;;4998278;28;19948;-76
2023/10/21 08:18:34;;;;;;;;;;;;;;;;;;4996545;28;19933;-76
2023/10/21 08:21:02;;;;;;;;;;;;;;;;;;4996637;28;19969;-76
2023/10/21 08:23:29;;;;;;;;;;;;;;;;;;4996304;28;20012;-76
2023/10/21 08:25:57;;;;;;;;;;;;;;;;;;4996339;28;19926;-76
2023/10/21 08:28:24;;;;;;;;;;;;;;;;;;4995996;28;19933;-76
2023/10/21 08:30:51;;;;;;;;;;;;;;;;;;4995237;28;19926;-76
2023/10/21 08:33:18;;;;;;;;;;;;;;;;;;4996121;28;20379;-76
2023/10/21 08:35:45;;;;;;;;;;;;;;;;;;4996486;28;19932;-76
2023/10/21 08:38:13;;;;;;;;;;;;;;;;;;5006205;28;19976;-75
2023/10/21 08:40:41;;;;;;;;;;;;;;;;;;5007406;28;19930;-75
2023/10/21 08:43:08;;;;;;;;;;;;;;;;;;4997307;28;19926;-75
2023/10/21 08:45:35;;;;;;;;;;;;;;;;;;4996031;28;19926;-75
2023/10/21 08:48:03;;;;;;;;;;;;;;;;;;4996289;28;19933;-76
2023/10/21 08:50:30;;;;;;;;;;;;;;;;;;4996523;28;19926;-74
2023/10/21 08:53:00;;;;;;;;;;;;;;;;;;4997829;28;19956;-75
2023/10/21 08:55:27;;;;;;;;;;;;;;;;;;4999547;28;19926;-75
2023/10/21 08:57:54;;;;;;;;;;;;;;;;;;4998585;28;20295;-77
2023/10/21 09:00:21;;;;;;;;;;;;;;;;;;4997930;28;19936;-76
2023/10/21 09:02:48;;;;;;;;;;;;;;;;;;4997429;28;19975;-75
2023/10/21 09:05:15;;;;;;;;;;;;;;;;;;4996933;28;20314;-76
2023/10/21 09:07:43;;;;;;;;;;;;;;;;;;4996946;28;19949;-76
2023/10/21 09:10:12;;;;;;;;;;;;;;;;;;4996494;28;19972;-76
2023/10/21 09:12:39;;;;;;;;;;;;;;;;;;4996379;28;19929;-76
2023/10/21 09:15:06;;;;;;;;;;;;;;;;;;4996651;28;19929;-76
2023/10/21 09:17:35;;;;;;;;;;;;;;;;;;4997408;28;19926;-76
2023/10/21 09:20:02;;;;;;;;;;;;;;;;;;4996813;28;19926;-75
2023/10/21 09:22:30;;;;;;;;;;;;;;;;;;4996174;28;19926;-76
2023/10/21 09:24:57;;;;;;;;;;;;;;;;;;4997437;28;19926;-76
2023/10/21 09:27:24;;;;;;;;;;;;;;;;;;4997031;28;19925;-77
2023/10/21 09:29:51;;;;;;;;;;;;;;;;;;4997774;28;19934;-75
2023/10/21 09:32:18;;;;;;;;;;;;;;;;;;4996987;28;19972;-76
2023/10/21 09:34:45;;;;;;;;;;;;;;;;;;4995460;28;19932;-75
2023/10/21 09:37:12;;;;;;;;;;;;;;;;;;5000691;28;19930;-78
2023/10/21 09:39:43;;;;;;;;;;;;;;;;;;5000892;28;19926;-78
2023/10/21 09:42:10;;;;;;;;;;;;;;;;;;5000897;28;19926;-79
2023/10/21 09:44:38;;;;;;;;;;;;;;;;;;4999029;28;19969;-79
2023/10/21 09:47:05;;;;;;;;;;;;;;;;;;5003250;28;19934;-78
2023/10/21 09:49:32;;;;;;;;;;;;;;;;;;5004141;28;20024;-79
2023/10/21 09:52:00;;;;;;;;;;;;;;;;;;5003104;28;19926;-79
2023/10/21 09:54:27;;;;;;;;;;;;;;;;;;5001002;28;19994;-77
2023/10/21 09:56:57;;;;;;;;;;;;;;;;;;5001583;28;19925;-78
2023/10/21 09:59:24;;;;;;;;;;;;;;;;;;5001170;28;19972;-78
2023/10/21 10:01:52;;;;;;;;;;;;;;;;;;5000825;28;19926;-78
2023/10/21 10:04:19;;;;;;;;;;;;;;;;;;4999330;28;19929;-78
2023/10/21 10:06:46;;;;;;;;;;;;;;;;;;4999940;28;19926;-78
2023/10/21 10:09:16;;;;;;;;;;;;;;;;;;5003542;28;19932;-78
2023/10/21 10:11:43;;;;;;;;;;;;;;;;;;4998922;28;19938;-77
2023/10/21 10:14:11;;;;;;;;;;;;;;;;;;4998643;28;19926;-77
2023/10/21 10:16:38;;;;;;;;;;;;;;;;;;5004392;28;20388;-78
2023/10/21 10:19:05;;;;;;;;;;;;;;;;;;5004204;28;19932;-77
2023/10/21 10:21:32;;;;;;;;;;;;;;;;;;5002336;28;20394;-78
2023/10/21 10:23:59;;;;;;;;;;;;;;;;;;5000880;28;19926;-78
2023/10/21 10:26:26;;;;;;;;;;;;;;;;;;4999633;28;19926;-78
2023/10/21 10:28:53;;;;;;;;;;;;;;;;;;4999566;28;19926;-78
2023/10/21 10:31:20;;;;;;;;;;;;;;;;;;4999488;28;19933;-77
2023/10/21 10:33:47;;;;;;;;;;;;;;;;;;4998200;28;19976;-78
2023/10/21 10:36:16;;;;;;;;;;;;;;;;;;4996863;28;20299;-77
2023/10/21 10:38:44;;;;;;;;;;;;;;;;;;4997140;28;20404;-78
2023/10/21 10:41:11;;;;;;;;;;;;;;;;;;4998760;28;19926;-78
2023/10/21 10:43:38;;;;;;;;;;;;;;;;;;4998412;28;19932;-78
2023/10/21 10:46:05;;;;;;;;;;;;;;;;;;4997127;28;19926;-77
2023/10/21 10:48:34;;;;;;;;;;;;;;;;;;4994870;28;19937;-77
2023/10/21 10:51:01;;;;;;;;;;;;;;;;;;4994982;28;19936;-78
2023/10/21 10:53:28;;;;;;;;;;;;;;;;;;4994611;28;19932;-77
2023/10/21 10:55:55;;;;;;;;;;;;;;;;;;4997810;28;19932;-77
2023/10/21 10:58:22;;;;;;;;;;;;;;;;;;4997861;28;19926;-78
2023/10/21 11:00:51;;;;;;;;;;;;;;;;;;4998033;28;19932;-77
2023/10/21 11:03:18;;;;;;;;;;;;;;;;;;4997826;28;19972;-76
2023/10/21 11:05:44;;;;;;;;;;;;;;;;;;4997585;28;19994;-74
2023/10/21 11:08:11;;;;;;;;;;;;;;;;;;4997909;28;19937;-77
2023/10/21 11:10:38;;;;;;;;;;;;;;;;;;4998066;28;20383;-77
2023/10/21 11:13:05;;;;;;;;;;;;;;;;;;4997794;28;19932;-77
2023/10/21 11:15:32;;;;;;;;;;;;;;;;;;4998349;28;19937;-77
2023/10/21 11:18:00;;;;;;;;;;;;;;;;;;4997385;28;20016;-77
2023/10/21 11:20:27;;;;;;;;;;;;;;;;;;4997369;28;20335;-77
2023/10/21 11:22:55;;;;;;;;;;;;;;;;;;4999611;28;19926;-79
2023/10/21 11:25:24;;;;;;;;;;;;;;;;;;4999816;28;19953;-78
2023/10/21 11:27:50;;;;;;;;;;;;;;;;;;4998353;28;20411;-77
2023/10/21 11:30:17;;;;;;;;;;;;;;;;;;4997401;28;19926;-77
2023/10/21 11:32:45;;;;;;;;;;;;;;;;;;4997136;28;19933;-77
2023/10/21 11:35:12;;;;;;;;;;;;;;;;;;4997391;28;19988;-77
2023/10/21 11:37:39;;;;;;;;;;;;;;;;;;4997112;28;19926;-77
2023/10/21 11:40:09;;;;;;;;;;;;;;;;;;4997333;28;19926;-76
2023/10/21 11:42:36;;;;;;;;;;;;;;;;;;4997333;28;19952;-77
2023/10/21 11:45:03;;;;;;;;;;;;;;;;;;4997371;28;19926;-77
2023/10/21 11:47:30;;;;;;;;;;;;;;;;;;4997192;28;20021;-77
2023/10/21 11:49:57;;;;;;;;;;;;;;;;;;4996887;28;20379;-76
2023/10/21 11:52:24;;;;;;;;;;;;;;;;;;4997035;28;19926;-77
2023/10/21 11:55:07;;;;;;;;;;;;;;;;;;4999214;28;19926;-77
2023/10/21 11:58:13;;;;;;;;;;;;;;;;;;4996753;28;19926;-77
2023/10/21 12:20:24;;;;;;;;;;;;;;;;;;4997627;28;20020;-77
2023/10/21 12:34:29;;;;;;;;;;;;;;;;;;4997646;28;19944;-77
2023/10/21 12:39:45;;;;;;;;;;;;;;;;;;5055334;28;20293;-76
2023/10/21 12:42:21;;;;;;;;;;;;;;;;;;5055194;28;19935;-76
2023/10/21 12:44:51;;;;;;;;;;;;;;;;;;5055146;28;19925;-76
2023/10/21 12:47:18;;;;;;;;;;;;;;;;;;5035924;28;19927;-76
2023/10/21 12:49:46;;;;;;;;;;;;;;;;;;5035075;28;19925;-76
2023/10/21 12:52:13;;;;;;;;;;;;;;;;;;5035503;28;19929;-76
2023/10/21 12:54:40;;;;;;;;;;;;;;;;;;5035114;28;19925;-76
2023/10/21 12:57:08;;;;;;;;;;;;;;;;;;5035046;28;19955;-76
2023/10/21 12:59:35;;;;;;;;;;;;;;;;;;5035216;28;19955;-76
2023/10/21 13:02:07;;;;;;;;;;;;;;;;;;5034766;28;20394;-76
2023/10/21 13:04:34;;;;;;;;;;;;;;;;;;5035074;28;20446;-76
2023/10/21 13:07:01;;;;;;;;;;;;;;;;;;5035212;28;19925;-75
2023/10/21 13:09:29;;;;;;;;;;;;;;;;;;5035657;28;19948;-75
2023/10/21 13:11:56;;;;;;;;;;;;;;;;;;5035560;28;19925;-75
2023/10/21 13:14:25;;;;;;;;;;;;;;;;;;5035119;28;20390;-76
2023/10/21 13:16:52;;;;;;;;;;;;;;;;;;5034871;28;19925;-76
2023/10/21 13:19:19;;;;;;;;;;;;;;;;;;5040034;28;19925;-76
2023/10/21 13:21:46;;;;;;;;;;;;;;;;;;5037631;28;19925;-76
2023/10/21 13:24:13;;;;;;;;;;;;;;;;;;5037862;28;19929;-76
2023/10/21 13:26:40;;;;;;;;;;;;;;;;;;5038306;28;19932;-75
2023/10/21 13:29:07;;;;;;;;;;;;;;;;;;5037964;28;19925;-75
2023/10/21 13:31:34;;;;;;;;;;;;;;;;;;5036805;28;20389;-75
2023/10/21 13:34:02;;;;;;;;;;;;;;;;;;5036040;28;19928;-75
2023/10/21 13:36:29;;;;;;;;;;;;;;;;;;5035737;28;19925;-75
2023/10/21 13:38:56;;;;;;;;;;;;;;;;;;5036626;28;19925;-75
2023/10/21 13:41:23;;;;;;;;;;;;;;;;;;5036343;28;19928;-75
2023/10/21 13:43:50;;;;;;;;;;;;;;;;;;5036809;28;20444;-75
2023/10/21 13:46:17;;;;;;;;;;;;;;;;;;5036264;28;19975;-75
2023/10/21 13:48:44;;;;;;;;;;;;;;;;;;5036162;28;20239;-77
2023/10/21 13:51:11;;;;;;;;;;;;;;;;;;5035938;28;19932;-76
2023/10/21 13:53:38;;;;;;;;;;;;;;;;;;5035283;28;19925;-74
2023/10/21 13:56:07;;;;;;;;;;;;;;;;;;5033814;28;19925;-74
2023/10/21 13:58:34;;;;;;;;;;;;;;;;;;5034074;28;19925;-74
2023/10/21 14:01:01;;;;;;;;;;;;;;;;;;5033768;28;20395;-74
2023/10/21 14:03:28;;;;;;;;;;;;;;;;;;5034931;28;19933;-74
2023/10/21 14:05:56;;;;;;;;;;;;;;;;;;5034505;28;19925;-74
2023/10/21 14:08:24;;;;;;;;;;;;;;;;;;5034605;28;20024;-74
2023/10/21 14:10:50;;;;;;;;;;;;;;;;;;5034532;28;19932;-74
2023/10/21 14:13:19;;;;;;;;;;;;;;;;;;5040601;28;19925;-76
2023/10/21 14:15:48;;;;;;;;;;;;;;;;;;5040708;28;19925;-76
2023/10/21 14:18:15;;;;;;;;;;;;;;;;;;5039529;28;19925;-76
2023/10/21 14:20:41;;;;;;;;;;;;;;;;;;5036496;28;19925;-76
2023/10/21 14:23:09;;;;;;;;;;;;;;;;;;5034538;28;19926;-76
2023/10/21 14:25:37;;;;;;;;;;;;;;;;;;5034403;28;20317;-77
2023/10/21 14:28:04;;;;;;;;;;;;;;;;;;5035324;28;19933;-76
2023/10/21 14:30:31;;;;;;;;;;;;;;;;;;5038257;28;20289;-75
2023/10/21 14:32:58;;;;;;;;;;;;;;;;;;5038427;28;19925;-75
2023/10/21 14:35:25;;;;;;;;;;;;;;;;;;5038483;28;19933;-74
2023/10/21 14:37:52;;;;;;;;;;;;;;;;;;5037707;28;19947;-74
2023/10/21 14:40:19;;;;;;;;;;;;;;;;;;5038362;28;19925;-74
2023/10/21 14:42:46;;;;;;;;;;;;;;;;;;5037932;28;19925;-74
2023/10/21 14:45:13;;;;;;;;;;;;;;;;;;5036969;28;20394;-75
2023/10/21 14:47:40;;;;;;;;;;;;;;;;;;5037333;28;19926;-75
2023/10/21 14:50:09;;;;;;;;;;;;;;;;;;5037903;28;19925;-75
2023/10/21 14:52:37;;;;;;;;;;;;;;;;;;5037796;28;19925;-75
2023/10/21 14:55:05;;;;;;;;;;;;;;;;;;5037463;28;19929;-74
2023/10/21 14:57:32;;;;;;;;;;;;;;;;;;5038004;28;19929;-76
2023/10/21 14:59:59;;;;;;;;;;;;;;;;;;5037007;28;19932;-76
2023/10/21 15:02:27;;;;;;;;;;;;;;;;;;5037140;28;19926;-76
2023/10/21 15:04:54;;;;;;;;;;;;;;;;;;5037346;28;19929;-76
2023/10/21 15:07:21;;;;;;;;;;;;;;;;;;5038742;28;20390;-76
2023/10/21 15:09:48;;;;;;;;;;;;;;;;;;5038214;28;20016;-76
2023/10/21 15:12:15;;;;;;;;;;;;;;;;;;5037098;28;19925;-76
2023/10/21 15:14:42;;;;;;;;;;;;;;;;;;5037044;28;19925;-76
2023/10/21 15:17:09;;;;;;;;;;;;;;;;;;5037226;28;20015;-75
2023/10/21 15:19:36;;;;;;;;;;;;;;;;;;5037183;28;20017;-76
2023/10/21 15:22:04;;;;;;;;;;;;;;;;;;5036853;28;19925;-76
2023/10/21 15:24:31;;;;;;;;;;;;;;;;;;5036533;28;19925;-76
2023/10/21 15:26:58;;;;;;;;;;;;;;;;;;5036516;28;19925;-76
2023/10/21 15:29:25;;;;;;;;;;;;;;;;;;5036523;28;19926;-76
2023/10/21 15:31:53;;;;;;;;;;;;;;;;;;5036718;28;20374;-76
2023/10/21 15:34:22;;;;;;;;;;;;;;;;;;5037008;28;19925;-76
2023/10/21 15:36:52;;;;;;;;;;;;;;;;;;5037145;28;19925;-77
2023/10/21 15:39:19;;;;;;;;;;;;;;;;;;5036453;28;20311;-76
2023/10/21 15:41:47;;;;;;;;;;;;;;;;;;5038132;28;19925;-76
2023/10/21 15:44:14;;;;;;;;;;;;;;;;;;5038293;28;19929;-76
2023/10/21 15:46:41;;;;;;;;;;;;;;;;;;5038783;28;19932;-76
2023/10/21 15:49:08;;;;;;;;;;;;;;;;;;5036732;28;19933;-76
2023/10/21 15:51:35;;;;;;;;;;;;;;;;;;5036014;28;20024;-76
2023/10/21 15:54:04;;;;;;;;;;;;;;;;;;5035624;28;20386;-76
2023/10/21 15:56:31;;;;;;;;;;;;;;;;;;5035515;28;19925;-76
2023/10/21 15:58:57;;;;;;;;;;;;;;;;;;5035978;28;19925;-76
2023/10/21 16:01:26;;;;;;;;;;;;;;;;;;5035778;28;19929;-76
2023/10/21 16:03:53;;;;;;;;;;;;;;;;;;5035814;28;20390;-76
2023/10/21 16:06:19;;;;;;;;;;;;;;;;;;5035729;28;19925;-76
2023/10/21 16:08:46;;;;;;;;;;;;;;;;;;5035351;28;20378;-76
2023/10/21 16:11:13;;;;;;;;;;;;;;;;;;5035557;28;19925;-77
2023/10/21 16:13:40;;;;;;;;;;;;;;;;;;5035266;28;20275;-77
2023/10/21 16:16:07;;;;;;;;;;;;;;;;;;5035489;28;19925;-76
2023/10/21 16:18:34;;;;;;;;;;;;;;;;;;5035520;28;19929;-77
2023/10/21 16:21:01;;;;;;;;;;;;;;;;;;5035500;28;19929;-77
2023/10/21 16:23:28;;;;;;;;;;;;;;;;;;5035982;28;19925;-77
2023/10/21 16:25:56;;;;;;;;;;;;;;;;;;5035625;28;19929;-76
2023/10/21 16:28:23;;;;;;;;;;;;;;;;;;5035600;28;20016;-77
2023/10/21 16:30:50;;;;;;;;;;;;;;;;;;5035477;28;19925;-77
2023/10/21 16:33:17;;;;;;;;;;;;;;;;;;5035672;28;19925;-77
2023/10/21 16:35:44;;;;;;;;;;;;;;;;;;5035424;28;19925;-76
2023/10/21 16:38:11;;;;;;;;;;;;;;;;;;5035158;28;20294;-76
2023/10/21 16:40:38;;;;;;;;;;;;;;;;;;5035275;28;19925;-77
2023/10/21 16:43:05;;;;;;;;;;;;;;;;;;5034894;28;20440;-76
2023/10/21 16:45:31;;;;;;;;;;;;;;;;;;5034956;28;19932;-77
2023/10/21 20:15:43;;;;;;;;;;;;;;;;;;5364919;23;19932;-77
2023/10/21 20:18:10;;;;;;;;;;;;;;;;;;5059077;28;20381;-77
2023/10/21 20:20:37;;;;;;;;;;;;;;;;;;5057259;28;19925;-75
2023/10/21 20:23:03;;;;;;;;;;;;;;;;;;5056516;28;19924;-76
2023/10/21 20:25:30;;;;;;;;;;;;;;;;;;5043857;28;19925;-77
2023/10/21 20:27:57;;;;;;;;;;;;;;;;;;5035679;28;19933;-77
2023/10/21 20:30:25;;;;;;;;;;;;;;;;;;5035802;28;19929;-77
2023/10/21 20:32:52;;;;;;;;;;;;;;;;;;5036037;28;19990;-77
2023/10/21 20:35:19;;;;;;;;;;;;;;;;;;5035980;28;19925;-78
2023/10/21 20:37:46;;;;;;;;;;;;;;;;;;5036032;28;19948;-77
2023/10/21 20:40:12;;;;;;;;;;;;;;;;;;5036399;28;19925;-78
2023/10/21 20:42:39;;;;;;;;;;;;;;;;;;5038117;28;20038;-78
2023/10/21 20:45:06;;;;;;;;;;;;;;;;;;5035778;28;20000;-74
2023/10/21 20:47:33;;;;;;;;;;;;;;;;;;5035290;28;19948;-73
2023/10/21 20:50:00;;;;;;;;;;;;;;;;;;5035310;28;19929;-76
2023/10/21 20:52:27;;;;;;;;;;;;;;;;;;5034808;28;20374;-73
2023/10/21 20:54:54;;;;;;;;;;;;;;;;;;5034745;28;19926;-73
2023/10/21 20:57:21;;;;;;;;;;;;;;;;;;5035055;28;19925;-73
2023/10/21 20:59:48;;;;;;;;;;;;;;;;;;5034721;28;20388;-76
2023/10/21 21:02:15;;;;;;;;;;;;;;;;;;5034850;28;19932;-76
2023/10/21 21:04:42;;;;;;;;;;;;;;;;;;5034488;28;19932;-76
2023/10/21 21:07:09;;;;;;;;;;;;;;;;;;5034438;28;20310;-76
2023/10/21 21:09:35;;;;;;;;;;;;;;;;;;5035002;28;19925;-76
2023/10/21 21:12:02;;;;;;;;;;;;;;;;;;5034627;28;19936;-76
2023/10/21 21:14:28;;;;;;;;;;;;;;;;;;5034645;28;19925;-75
2023/10/21 21:16:55;;;;;;;;;;;;;;;;;;5034573;28;20004;-76
2023/10/21 21:19:23;;;;;;;;;;;;;;;;;;5034559;28;19929;-76
2023/10/21 21:21:55;;;;;;;;;;;;;;;;;;5034717;28;20297;-76
2023/10/21 21:24:24;;;;;;;;;;;;;;;;;;5034246;28;20378;-75
2023/10/21 21:26:51;;;;;;;;;;;;;;;;;;5034370;28;19980;-75
2023/10/21 21:29:18;;;;;;;;;;;;;;;;;;5034754;28;19925;-75
2023/10/21 21:31:45;;;;;;;;;;;;;;;;;;5035600;28;19925;-75
2023/10/21 21:34:12;;;;;;;;;;;;;;;;;;5035281;28;19972;-76
2023/10/21 21:36:39;;;;;;;;;;;;;;;;;;5034568;28;19925;-78
2023/10/21 21:39:12;;;;;;;;;;;;;;;;;;5033783;28;19925;-75
2023/10/21 21:41:40;;;;;;;;;;;;;;;;;;5033893;28;19929;-75
2023/10/21 21:44:07;;;;;;;;;;;;;;;;;;5034149;28;19941;-76
2023/10/21 21:46:34;;;;;;;;;;;;;;;;;;5033879;28;20290;-75
2023/10/21 21:49:02;;;;;;;;;;;;;;;;;;5034133;28;19925;-75
2023/10/21 21:51:29;;;;;;;;;;;;;;;;;;5033938;28;19929;-75
2023/10/21 21:53:56;;;;;;;;;;;;;;;;;;5034183;28;20019;-76
2023/10/21 21:56:23;;;;;;;;;;;;;;;;;;5033947;28;19925;-76
2023/10/21 21:58:50;;;;;;;;;;;;;;;;;;5033918;28;20382;-75
2023/10/21 22:01:17;;;;;;;;;;;;;;;;;;5033978;28;19932;-75
2023/10/21 22:03:45;;;;;;;;;;;;;;;;;;5033836;28;19932;-75
2023/10/21 22:06:13;;;;;;;;;;;;;;;;;;5033961;28;19925;-75
2023/10/21 22:08:40;;;;;;;;;;;;;;;;;;5033559;28;20267;-75
2023/10/21 22:11:08;;;;;;;;;;;;;;;;;;5033701;28;19925;-75
2023/10/21 22:13:37;;;;;;;;;;;;;;;;;;5033548;28;20370;-76
2023/10/21 22:16:06;;;;;;;;;;;;;;;;;;5033465;28;19925;-75
2023/10/21 22:18:33;;;;;;;;;;;;;;;;;;5033911;28;19926;-76
2023/10/21 22:21:00;;;;;;;;;;;;;;;;;;5033752;28;20385;-76
2023/10/21 22:23:27;;;;;;;;;;;;;;;;;;5034020;28;19925;-76
2023/10/21 22:25:55;;;;;;;;;;;;;;;;;;5034240;28;19925;-75
2023/10/21 22:28:22;;;;;;;;;;;;;;;;;;5033906;28;19925;-75
2023/10/21 22:30:49;;;;;;;;;;;;;;;;;;5033859;28;19971;-75
2023/10/21 22:33:18;;;;;;;;;;;;;;;;;;5034190;28;19925;-76
2023/10/21 22:35:45;;;;;;;;;;;;;;;;;;5033836;28;19948;-77
2023/10/21 22:38:12;;;;;;;;;;;;;;;;;;5034009;28;19932;-77
2023/10/21 22:40:41;;;;;;;;;;;;;;;;;;5033812;28;19979;-76
2023/10/21 22:43:08;;;;;;;;;;;;;;;;;;5033591;28;20366;-76
2023/10/21 22:45:36;;;;;;;;;;;;;;;;;;5033423;28;19932;-75
2023/10/21 22:48:04;;;;;;;;;;;;;;;;;;5033551;28;20018;-75
2023/10/21 22:50:31;;;;;;;;;;;;;;;;;;5034527;28;20409;-75
2023/10/21 22:52:58;;;;;;;;;;;;;;;;;;5037144;28;19925;-76
2023/10/21 22:55:25;;;;;;;;;;;;;;;;;;5037141;28;19925;-75
2023/10/21 22:57:52;;;;;;;;;;;;;;;;;;5037175;28;19925;-75
2023/10/21 23:00:21;;;;;;;;;;;;;;;;;;5037066;28;20401;-75
2023/10/21 23:02:48;;;;;;;;;;;;;;;;;;5037021;28;19931;-75
2023/10/21 23:05:15;;;;;;;;;;;;;;;;;;5036641;28;20300;-75
2023/10/21 23:07:44;;;;;;;;;;;;;;;;;;5036951;28;19991;-75
